Time;durP1;ratioP1;P1;durP2;ratioP2;P2;SDS_P1;SDS_P2;PMS_P1;PMS_P2;Temp;Humidity;BMP_temperature;BMP_pressure;BME280_temperature;BME280_humidity;BME280_pressure;Samples;Min_cycle;Max_cycle;Signal;HPM_P1;HPM_P2
2021/04/13 00:01:31;;;;;;;1.53;1.10;;;19.20;27.60;;;;;;5186823;27;20846;-34
2021/04/13 00:04:09;;;;;;;1.53;1.10;;;19.20;27.70;;;;;;5186747;27;20429;-34
2021/04/13 00:06:43;;;;;;;0.90;0.90;;;19.10;27.40;;;;;;5186334;27;20530;-34
2021/04/13 00:09:18;;;;;;;1.60;1.17;;;19.10;28.40;;;;;;5166041;27;20895;-35
2021/04/13 00:11:53;;;;;;;1.00;0.90;;;19.10;28.00;;;;;;5177231;27;20492;-34
2021/04/13 00:14:28;;;;;;;2.07;1.33;;;19.00;27.50;;;;;;5180517;27;20409;-35
2021/04/13 00:17:02;;;;;;;4.20;1.30;;;18.90;28.80;;;;;;5166261;27;20422;-35
2021/04/13 00:19:39;;;;;;;2.27;1.37;;;19.00;28.90;;;;;;5169035;27;20435;-35
2021/04/13 00:22:09;;;;;;;1.30;1.10;;;19.00;28.70;;;;;;5173121;27;20490;-35
2021/04/13 00:24:40;;;;;;;1.30;1.20;;;18.90;28.80;;;;;;5183834;27;20417;-35
2021/04/13 00:27:14;;;;;;;1.10;1.10;;;18.90;28.90;;;;;;5184901;27;20450;-35
2021/04/13 00:29:45;;;;;;;0.90;0.90;;;18.60;28.20;;;;;;5186138;27;20439;-34
2021/04/13 00:32:15;;;;;;;3.53;1.30;;;18.50;28.30;;;;;;5183777;27;20516;-34
2021/04/13 00:34:50;;;;;;;1.33;0.83;;;18.40;28.50;;;;;;5185720;27;20451;-34
2021/04/13 00:37:24;;;;;;;1.50;1.17;;;18.30;28.50;;;;;;5183533;27;20457;-34
2021/04/13 00:39:57;;;;;;;2.20;1.20;;;18.20;28.90;;;;;;5184902;27;20475;-33
2021/04/13 00:42:32;;;;;;;1.10;1.10;;;18.10;28.70;;;;;;5184374;27;20471;-32
2021/04/13 00:45:08;;;;;;;2.40;1.50;;;18.00;29.10;;;;;;5186369;27;20889;-34
2021/04/13 00:47:39;;;;;;;1.77;1.20;;;17.90;28.90;;;;;;5179556;27;20447;-34
2021/04/13 00:50:12;;;;;;;1.50;1.40;;;17.90;29.30;;;;;;5182160;27;20439;-34
2021/04/13 00:52:44;;;;;;;1.50;1.13;;;17.90;28.70;;;;;;5185440;27;20487;-33
2021/04/13 00:55:16;;;;;;;1.30;1.20;;;17.80;28.90;;;;;;5185053;27;20446;-33
2021/04/13 00:57:50;;;;;;;2.40;1.13;;;17.80;29.50;;;;;;5179132;27;20845;-33
2021/04/13 01:00:25;;;;;;;2.10;1.30;;;17.90;29.60;;;;;;5185174;27;20929;-35
2021/04/13 01:02:59;;;;;;;1.17;1.10;;;17.80;29.40;;;;;;5186117;27;20417;-34
2021/04/13 01:05:39;;;;;;;1.43;1.27;;;17.80;28.70;;;;;;5185560;27;20455;-34
2021/04/13 01:08:20;;;;;;;1.13;1.03;;;17.70;29.00;;;;;;5184980;27;20808;-34
2021/04/13 01:10:53;;;;;;;5.10;1.47;;;17.60;30.00;;;;;;5177778;27;20458;-36
2021/04/13 01:13:39;;;;;;;2.10;1.27;;;17.60;29.80;;;;;;5184788;27;20790;-34
2021/04/13 01:16:09;;;;;;;3.80;1.10;;;17.50;29.00;;;;;;5185358;27;20443;-34
2021/04/13 01:18:44;;;;;;;1.50;1.40;;;17.50;29.10;;;;;;5184783;27;20431;-34
2021/04/13 01:21:35;;;;;;;1.23;1.13;;;17.50;30.00;;;;;;5184907;27;20477;-35
2021/04/13 01:24:11;;;;;;;1.73;1.63;;;17.40;29.10;;;;;;5174896;27;20442;-34
2021/04/13 01:26:45;;;;;;;1.93;1.50;;;17.40;29.40;;;;;;5184066;27;20477;-33
2021/04/13 01:29:18;;;;;;;1.80;1.53;;;17.30;29.20;;;;;;5185014;27;20454;-33
2021/04/13 01:31:53;;;;;;;4.90;1.60;;;17.30;28.80;;;;;;5184274;27;20442;-33
2021/04/13 01:34:31;;;;;;;1.97;1.60;;;17.20;29.70;;;;;;5184909;27;20439;-33
2021/04/13 01:37:08;;;;;;;1.50;1.30;;;17.20;30.10;;;;;;5180967;27;20431;-33
2021/04/13 01:39:50;;;;;;;1.43;1.33;;;17.20;29.80;;;;;;5185404;27;20467;-33
2021/04/13 01:42:22;;;;;;;1.90;1.43;;;17.20;30.00;;;;;;5184393;27;20507;-33
2021/04/13 01:44:57;;;;;;;3.50;1.50;;;17.10;29.70;;;;;;5185018;27;20455;-33
2021/04/13 01:47:28;;;;;;;1.60;1.50;;;17.00;29.60;;;;;;5183961;27;20446;-33
2021/04/13 01:50:00;;;;;;;2.17;2.00;;;17.00;29.90;;;;;;5182727;27;20447;-33
2021/04/13 01:52:34;;;;;;;2.10;1.70;;;16.90;30.00;;;;;;5182842;27;20450;-33
2021/04/13 01:55:10;;;;;;;2.00;1.77;;;16.90;30.60;;;;;;5183809;27;20456;-33
2021/04/13 01:57:56;;;;;;;4.40;1.50;;;16.80;31.00;;;;;;5182126;27;20499;-33
2021/04/13 02:00:31;;;;;;;1.67;1.50;;;16.80;29.80;;;;;;5184901;27;20447;-33
2021/04/13 02:03:09;;;;;;;2.30;1.70;;;16.70;30.40;;;;;;5188076;27;20446;-34
2021/04/13 02:05:43;;;;;;;2.27;1.90;;;16.70;29.80;;;;;;5188705;27;20966;-33
2021/04/13 02:08:20;;;;;;;5.33;1.80;;;16.60;29.60;;;;;;5188776;27;20890;-33
2021/04/13 02:10:56;;;;;;;2.30;1.73;;;16.50;29.30;;;;;;5189537;27;20453;-32
2021/04/13 02:13:32;;;;;;;1.87;1.70;;;16.50;29.40;;;;;;5185901;27;20451;-34
2021/04/13 02:16:08;;;;;;;2.37;1.67;;;16.40;29.70;;;;;;5188639;27;20434;-33
2021/04/13 02:18:42;;;;;;;3.43;1.23;;;16.40;29.80;;;;;;5188270;27;20469;-33
2021/04/13 02:21:15;;;;;;;2.70;1.80;;;16.30;29.50;;;;;;5188943;27;20486;-33
2021/04/13 02:23:48;;;;;;;2.23;1.57;;;16.20;29.70;;;;;;5187427;27;20516;-33
2021/04/13 02:26:20;;;;;;;3.03;2.83;;;16.20;29.50;;;;;;5187751;27;20442;-33
2021/04/13 02:28:52;;;;;;;12.50;11.20;;;16.10;30.00;;;;;;5189104;27;20472;-33
2021/04/13 02:31:47;;;;;;;2.50;2.30;;;16.00;29.90;;;;;;5188741;27;20499;-34
2021/04/13 02:34:20;;;;;;;8.07;7.27;;;15.90;29.80;;;;;;5188737;27;20475;-33
2021/04/13 02:36:54;;;;;;;6.70;6.00;;;15.90;29.80;;;;;;5187392;27;20773;-33
2021/04/13 02:39:29;;;;;;;13.30;12.27;;;15.80;29.50;;;;;;5179857;27;20494;-31
2021/04/13 02:42:05;;;;;;;4.80;3.47;;;15.80;29.50;;;;;;5186564;27;20540;-32
2021/04/13 02:44:35;;;;;;;3.20;2.20;;;15.70;30.50;;;;;;5187793;27;20450;-32
2021/04/13 02:47:12;;;;;;;2.10;1.90;;;15.60;30.50;;;;;;5185828;27;20438;-31
2021/04/13 02:49:43;;;;;;;2.43;2.23;;;15.50;30.60;;;;;;5186227;27;20459;-31
2021/04/13 02:52:18;;;;;;;2.40;2.00;;;15.50;30.90;;;;;;5187254;27;20459;-31
2021/04/13 02:54:53;;;;;;;3.20;2.10;;;15.40;30.50;;;;;;5188338;27;20438;-31
2021/04/13 02:57:26;;;;;;;2.17;2.07;;;15.40;31.00;;;;;;5187455;27;20443;-32
2021/04/13 03:00:02;;;;;;;3.63;2.50;;;15.30;31.60;;;;;;5186824;27;20453;-32
2021/04/13 03:02:39;;;;;;;2.67;2.23;;;15.20;32.00;;;;;;5182261;27;21354;-32
2021/04/13 03:05:15;;;;;;;2.63;2.20;;;15.10;32.00;;;;;;5182230;27;20432;-31
2021/04/13 03:07:45;;;;;;;2.20;2.10;;;15.10;31.90;;;;;;5186739;27;20435;-32
2021/04/13 03:10:19;;;;;;;3.90;3.00;;;15.00;32.30;;;;;;5187128;27;20461;-32
2021/04/13 03:12:53;;;;;;;2.57;2.17;;;15.00;33.00;;;;;;5186352;27;20506;-34
2021/04/13 03:15:26;;;;;;;2.37;2.17;;;14.80;32.50;;;;;;5187453;27;20450;-34
2021/04/13 03:18:00;;;;;;;2.50;2.30;;;14.80;33.50;;;;;;5184021;27;20457;-34
2021/04/13 03:20:36;;;;;;;3.63;2.50;;;14.60;34.20;;;;;;5188100;27;20521;-33
2021/04/13 03:23:08;;;;;;;3.33;2.13;;;14.50;34.30;;;;;;5188052;27;20839;-34
2021/04/13 03:25:42;;;;;;;4.50;2.63;;;14.50;33.70;;;;;;5187322;27;20438;-34
2021/04/13 03:28:14;;;;;;;2.73;2.10;;;14.40;34.30;;;;;;5185661;27;20610;-34
2021/04/13 03:30:44;;;;;;;1.77;1.67;;;14.30;35.70;;;;;;5187129;27;20565;-33
2021/04/13 03:33:18;;;;;;;2.23;1.60;;;14.30;32.20;;;;;;5186870;27;20439;-33
2021/04/13 03:35:48;;;;;;;1.83;1.60;;;14.40;31.70;;;;;;5186365;27;20443;-32
2021/04/13 03:38:21;;;;;;;1.70;1.60;;;14.50;31.90;;;;;;5184929;27;20891;-33
2021/04/13 03:40:53;;;;;;;1.70;1.57;;;14.50;31.70;;;;;;5184344;27;20504;-33
2021/04/13 03:43:25;;;;;;;3.87;1.73;;;14.50;31.30;;;;;;5185071;27;20500;-33
2021/04/13 03:45:58;;;;;;;4.40;1.50;;;14.50;31.50;;;;;;5186455;27;20451;-32
2021/04/13 03:48:31;;;;;;;1.80;1.27;;;14.40;31.60;;;;;;5186490;27;20800;-32
2021/04/13 03:51:05;;;;;;;2.43;1.53;;;14.40;30.60;;;;;;5182286;27;20439;-32
2021/04/13 03:53:39;;;;;;;2.00;1.53;;;14.40;32.30;;;;;;5186918;27;20443;-32
2021/04/13 03:56:11;;;;;;;4.03;1.60;;;14.20;33.40;;;;;;5185831;27;20443;-32
2021/04/13 03:58:43;;;;;;;1.60;1.50;;;14.10;32.50;;;;;;5186063;27;20506;-32
2021/04/13 04:01:16;;;;;;;2.70;1.43;;;13.90;34.10;;;;;;5185154;27;20471;-33
2021/04/13 04:03:53;;;;;;;2.93;1.60;;;13.80;36.30;;;;;;5185884;27;20447;-32
2021/04/13 04:06:40;;;;;;;1.90;1.60;;;13.60;35.90;;;;;;5186085;27;20760;-31
2021/04/13 04:09:17;;;;;;;2.47;1.73;;;13.50;34.10;;;;;;5185572;27;20467;-32
2021/04/13 04:11:48;;;;;;;2.87;1.70;;;13.50;35.90;;;;;;5186697;27;20483;-33
2021/04/13 04:14:21;;;;;;;3.67;1.97;;;13.40;36.70;;;;;;5186760;27;20446;-33
2021/04/13 04:16:52;;;;;;;2.43;2.23;;;13.30;36.40;;;;;;5186600;27;20443;-36
2021/04/13 04:19:26;;;;;;;2.70;1.83;;;13.00;37.60;;;;;;5183553;27;20447;-39
2021/04/13 04:22:01;;;;;;;1.93;1.37;;;12.90;39.30;;;;;;5186471;27;20550;-40
2021/04/13 04:24:34;;;;;;;2.60;2.07;;;12.90;37.00;;;;;;5185839;27;20442;-40
2021/04/13 04:27:08;;;;;;;2.60;2.00;;;13.00;36.40;;;;;;5186425;27;20439;-40
2021/04/13 04:29:42;;;;;;;3.60;1.70;;;12.90;37.10;;;;;;5185305;27;20451;-39
2021/04/13 04:32:15;;;;;;;2.10;1.90;;;12.80;38.00;;;;;;5186285;27;20506;-40
2021/04/13 04:34:55;;;;;;;2.50;1.77;;;12.60;38.10;;;;;;5186358;27;20506;-40
2021/04/13 04:37:29;;;;;;;2.93;1.93;;;12.60;38.10;;;;;;5186530;27;20458;-36
2021/04/13 04:40:38;;;;;;;2.10;1.67;;;12.50;39.00;;;;;;5187180;27;20810;-39
2021/04/13 04:43:13;;;;;;;3.60;1.70;;;12.30;39.50;;;;;;5183360;27;20447;-40
2021/04/13 04:45:55;;;;;;;1.40;1.30;;;12.20;38.10;;;;;;5186272;27;20439;-38
2021/04/13 04:48:29;;;;;;;2.13;2.03;;;12.20;37.70;;;;;;5184813;27;20534;-40
2021/04/13 04:51:02;;;;;;;1.90;1.67;;;12.10;38.00;;;;;;5185557;27;20534;-37
2021/04/13 04:53:33;;;;;;;1.50;1.40;;;12.10;38.90;;;;;;5184971;27;20443;-41
2021/04/13 04:56:05;;;;;;;2.10;1.13;;;11.90;38.70;;;;;;5183474;27;20443;-36
2021/04/13 04:58:35;;;;;;;1.83;0.90;;;11.90;40.60;;;;;;5184652;27;20435;-38
2021/04/13 05:01:06;;;;;;;4.10;1.40;;;11.80;40.10;;;;;;5186465;27;20500;-39
2021/04/13 05:03:42;;;;;;;3.17;1.83;;;11.70;39.80;;;;;;5186033;27;20551;-39
2021/04/13 05:06:13;;;;;;;1.77;1.17;;;11.70;38.40;;;;;;5186616;27;20474;-38
2021/04/13 05:08:43;;;;;;;2.00;1.20;;;11.60;37.90;;;;;;5186291;27;20443;-39
2021/04/13 05:11:14;;;;;;;1.70;1.20;;;11.60;39.10;;;;;;5186288;27;20455;-39
2021/04/13 05:13:44;;;;;;;1.30;1.10;;;11.60;38.60;;;;;;5184911;27;20462;-38
2021/04/13 05:16:14;;;;;;;1.57;1.20;;;11.60;38.90;;;;;;5185460;27;20515;-39
2021/04/13 05:18:45;;;;;;;1.13;1.02;;;11.60;39.70;;;;;;5185791;27;20448;-39
2021/04/13 05:21:16;;;;;;;1.70;1.07;;;11.70;36.40;;;;;;5185552;27;20225;-39
2021/04/13 05:23:46;;;;;;;2.33;1.17;;;11.80;37.40;;;;;;5184982;27;20447;-39
2021/04/13 05:26:16;;;;;;;1.27;1.07;;;11.90;36.40;;;;;;5185456;27;20454;-38
2021/04/13 05:28:46;;;;;;;2.07;1.20;;;12.20;34.50;;;;;;5185531;27;20435;-37
2021/04/13 05:31:16;;;;;;;1.10;1.00;;;12.30;36.10;;;;;;5184812;27;20471;-36
2021/04/13 05:33:47;;;;;;;1.65;1.55;;;12.30;37.00;;;;;;5186177;27;20921;-39
2021/04/13 05:36:19;;;;;;;1.25;1.10;;;12.40;35.40;;;;;;5182380;27;20228;-36
2021/04/13 05:38:51;;;;;;;1.70;1.20;;;12.30;36.00;;;;;;5185828;27;20637;-38
2021/04/13 05:41:22;;;;;;;1.67;1.45;;;12.20;36.30;;;;;;5184684;27;20864;-38
2021/04/13 05:43:52;;;;;;;3.03;1.30;;;12.10;36.50;;;;;;5185936;27;20218;-40
2021/04/13 05:46:25;;;;;;;1.20;1.00;;;12.10;37.00;;;;;;5184223;27;20205;-36
2021/04/13 05:48:57;;;;;;;1.90;1.20;;;12.20;35.60;;;;;;5177827;27;20492;-40
2021/04/13 05:51:29;;;;;;;1.60;1.30;;;12.30;35.30;;;;;;5184682;27;20443;-40
2021/04/13 05:53:59;;;;;;;1.10;0.83;;;12.30;35.20;;;;;;5184890;27;20442;-39
2021/04/13 05:56:32;;;;;;;3.00;1.20;;;12.30;36.70;;;;;;5184413;27;20495;-40
2021/04/13 05:59:05;;;;;;;1.07;0.80;;;12.20;36.60;;;;;;5181001;27;20448;-40
2021/04/13 06:01:36;;;;;;;1.53;1.17;;;12.10;37.30;;;;;;5185250;27;20483;-40
2021/04/13 06:04:11;;;;;;;1.70;1.23;;;12.10;36.80;;;;;;5185539;27;20775;-41
2021/04/13 06:06:42;;;;;;;1.30;0.90;;;12.00;37.20;;;;;;5185007;27;20828;-40
2021/04/13 06:09:14;;;;;;;1.00;1.00;;;11.90;37.90;;;;;;5185522;27;20461;-37
2021/04/13 06:11:44;;;;;;;1.65;1.10;;;12.10;36.50;;;;;;5176485;27;20457;-39
2021/04/13 06:14:15;;;;;;;2.80;1.45;;;12.10;36.40;;;;;;5184303;27;20266;-35
2021/04/13 06:16:48;;;;;;;2.83;1.30;;;12.20;37.10;;;;;;5184622;27;20190;-36
2021/04/13 06:19:19;;;;;;;2.77;1.30;;;12.20;36.80;;;;;;5185035;27;20446;-39
2021/04/13 06:21:51;;;;;;;2.47;1.33;;;12.30;36.90;;;;;;5180909;27;20511;-40
2021/04/13 06:24:21;;;;;;;2.63;1.23;;;12.30;36.80;;;;;;5184868;27;21030;-40
2021/04/13 06:26:51;;;;;;;2.22;1.38;;;12.20;37.10;;;;;;5183985;27;20468;-39
2021/04/13 06:29:28;;;;;;;2.93;1.13;;;12.20;36.50;;;;;;5185154;27;20193;-39
2021/04/13 06:31:58;;;;;;;2.37;1.20;;;12.20;37.10;;;;;;5184914;27;20446;-39
2021/04/13 06:34:28;;;;;;;1.77;1.20;;;12.30;36.20;;;;;;5184691;27;20625;-39
2021/04/13 06:37:01;;;;;;;2.00;1.43;;;12.30;36.60;;;;;;5184477;27;20455;-37
2021/04/13 06:39:34;;;;;;;1.60;1.13;;;12.30;38.00;;;;;;5176488;27;20469;-38
2021/04/13 06:42:16;;;;;;;1.90;1.10;;;12.40;37.30;;;;;;5184259;27;20480;-38
2021/04/13 06:45:09;;;;;;;1.90;1.17;;;12.30;37.20;;;;;;5183819;27;20443;-34
2021/04/13 06:48:11;;;;;;;1.80;1.13;;;12.30;37.80;;;;;;5185205;27;20455;-38
2021/04/13 06:50:48;;;;;;;3.30;1.30;;;12.40;36.70;;;;;;5180065;27;20479;-39
2021/04/13 06:53:33;;;;;;;2.13;1.93;;;12.30;37.90;;;;;;5188069;27;20476;-38
2021/04/13 06:56:38;;;;;;;2.10;1.17;;;12.20;38.30;;;;;;5187858;27;20451;-39
2021/04/13 06:59:53;;;;;;;2.37;1.30;;;12.20;37.70;;;;;;5176786;27;20754;-39
2021/04/13 07:02:29;;;;;;;2.07;0.93;;;12.20;38.70;;;;;;5102171;28;20486;-38
2021/04/13 07:05:05;;;;;;;1.73;1.50;;;12.10;37.90;;;;;;5102744;28;20442;-38
2021/04/13 07:07:41;;;;;;;1.30;1.20;;;12.10;38.20;;;;;;5102645;28;20480;-37
2021/04/13 07:10:20;;;;;;;3.10;1.37;;;12.10;38.20;;;;;;5103682;28;20458;-39
2021/04/13 07:13:01;;;;;;;2.03;1.10;;;12.10;37.80;;;;;;5102021;28;20536;-38
2021/04/13 07:15:39;;;;;;;2.00;1.00;;;12.10;38.00;;;;;;5101712;28;20447;-37
2021/04/13 07:18:14;;;;;;;2.97;1.10;;;12.00;38.90;;;;;;5102861;28;20790;-39
2021/04/13 07:20:52;;;;;;;2.80;1.30;;;11.80;39.00;;;;;;5086839;28;20449;-39
2021/04/13 07:23:31;;;;;;;1.90;1.03;;;11.80;38.90;;;;;;5102654;28;20554;-40
2021/04/13 07:26:09;;;;;;;3.00;1.03;;;11.80;38.80;;;;;;5101891;28;20447;-37
2021/04/13 07:28:47;;;;;;;1.10;1.00;;;11.80;39.30;;;;;;5102004;28;20450;-39
2021/04/13 07:31:22;;;;;;;0.83;0.70;;;11.80;39.50;;;;;;5099041;28;20452;-40
2021/04/13 07:33:52;;;;;;;2.20;1.03;;;11.70;39.90;;;;;;5167800;27;20434;-39
2021/04/13 07:36:26;;;;;;;1.10;0.90;;;11.80;39.40;;;;;;5187581;27;20465;-36
2021/04/13 07:38:57;;;;;;;1.95;0.98;;;11.70;40.20;;;;;;5183079;27;20472;-40
2021/04/13 07:41:36;;;;;;;1.00;0.90;;;11.80;38.60;;;;;;5186789;27;20380;-37
2021/04/13 07:44:10;;;;;;;3.22;1.60;;;11.80;40.50;;;;;;5187687;27;20447;-38
2021/04/13 07:47:01;;;;;;;3.27;1.10;;;11.80;39.10;;;;;;5183478;27;20190;-39
2021/04/13 07:49:39;;;;;;;1.30;1.20;;;11.70;39.20;;;;;;5177155;27;20457;-38
2021/04/13 07:52:20;;;;;;;1.93;0.70;;;11.60;39.70;;;;;;5186679;27;20442;-37
2021/04/13 07:54:58;;;;;;;1.30;1.20;;;11.50;40.70;;;;;;5187213;27;20443;-36
2021/04/13 07:57:39;;;;;;;3.35;0.90;;;11.40;40.50;;;;;;5186338;27;20197;-38
2021/04/13 08:00:19;;;;;;;0.97;0.93;;;11.20;41.20;;;;;;5187067;27;20198;-41
2021/04/13 08:03:01;;;;;;;0.97;0.87;;;11.00;42.60;;;;;;5185597;27;20471;-41
2021/04/13 08:05:40;;;;;;;0.82;0.60;;;10.90;42.10;;;;;;5187223;27;20447;-36
2021/04/13 08:08:21;;;;;;;1.27;0.82;;;10.80;42.30;;;;;;5186181;27;20261;-38
2021/04/13 08:10:51;;;;;;;0.50;0.50;;;10.70;44.50;;;;;;5187040;27;20317;-38
2021/04/13 08:13:32;;;;;;;0.97;0.90;;;10.60;44.20;;;;;;5175116;27;20201;-38
2021/04/13 08:16:02;;;;;;;1.15;0.93;;;10.50;45.60;;;;;;5186195;27;20480;-39
2021/04/13 08:18:38;;;;;;;0.70;0.70;;;10.40;44.90;;;;;;5181744;27;20198;-36
2021/04/13 08:21:19;;;;;;;1.60;1.30;;;10.40;44.40;;;;;;5186555;27;20527;-39
2021/04/13 08:23:50;;;;;;;1.05;0.88;;;10.30;45.80;;;;;;5180240;27;20499;-38
2021/04/13 08:26:38;;;;;;;1.92;0.80;;;10.20;45.30;;;;;;5185005;27;20198;-39
2021/04/13 08:29:41;;;;;;;2.25;1.55;;;10.10;47.00;;;;;;5186053;27;20246;-35
2021/04/13 08:35:34;;;;;;;2.15;1.60;;;10.00;50.10;;;;;;5082145;28;20205;-38
2021/04/13 08:38:23;;;;;;;2.63;2.00;;;9.90;52.40;;;;;;5083900;28;20262;-38
2021/04/13 08:41:08;;;;;;;4.05;1.80;;;9.70;53.20;;;;;;5082098;28;20259;-39
2021/04/13 08:43:50;;;;;;;3.40;2.33;;;9.60;54.00;;;;;;5080928;28;20258;-39
2021/04/13 08:46:33;;;;;;;3.05;2.08;;;9.40;54.80;;;;;;5081122;28;20212;-35
2021/04/13 08:49:07;;;;;;;2.45;2.25;;;9.40;55.70;;;;;;5094261;28;20324;-39
2021/04/13 08:51:42;;;;;;;2.00;1.80;;;9.30;56.30;;;;;;5084272;28;20204;-40
2021/04/13 08:54:32;;;;;;;3.22;2.00;;;9.20;56.40;;;;;;5101454;28;20251;-37
2021/04/13 08:57:17;;;;;;;1.85;1.63;;;9.10;57.50;;;;;;5098002;28;20243;-39
2021/04/13 08:59:50;;;;;;;2.95;2.65;;;9.00;58.30;;;;;;5101567;28;20208;-40
2021/04/13 09:02:26;;;;;;;2.33;1.95;;;8.90;59.80;;;;;;5094221;28;20288;-39
2021/04/13 09:05:09;;;;;;;3.80;2.25;;;8.80;61.00;;;;;;5089300;28;21508;-37
2021/04/13 09:07:55;;;;;;;2.05;1.85;;;8.90;61.30;;;;;;5095063;28;20211;-38
2021/04/13 09:10:35;;;;;;;3.33;2.08;;;8.80;61.30;;;;;;5106202;27;20203;-37
2021/04/13 09:13:11;;;;;;;5.15;2.22;;;8.80;61.90;;;;;;5171461;27;20271;-37
2021/04/13 09:15:52;;;;;;;2.60;2.17;;;8.80;62.60;;;;;;5185947;27;20201;-39
2021/04/13 09:18:31;;;;;;;2.50;2.30;;;8.70;64.10;;;;;;5185267;27;20227;-40
2021/04/13 09:21:25;;;;;;;2.30;2.10;;;8.60;65.30;;;;;;5185859;27;20590;-41
2021/04/13 09:23:59;;;;;;;2.42;2.20;;;8.60;65.80;;;;;;5175843;27;20282;-40
2021/04/13 09:26:42;;;;;;;3.28;2.25;;;8.50;67.40;;;;;;5179536;27;20579;-40
2021/04/13 09:29:34;;;;;;;2.22;2.03;;;8.50;68.10;;;;;;5185699;27;20190;-40
2021/04/13 09:32:07;;;;;;;2.60;2.25;;;8.50;69.00;;;;;;5176111;27;20234;-39
2021/04/13 09:35:14;;;;;;;3.83;2.17;;;8.40;70.40;;;;;;5185249;27;20193;-33
2021/04/13 09:37:55;;;;;;;2.28;2.00;;;8.30;72.20;;;;;;5184941;27;20198;-39
2021/04/13 09:41:01;;;;;;;2.70;2.17;;;8.20;73.50;;;;;;5185173;27;20231;-37
2021/04/13 09:43:52;;;;;;;2.50;2.30;;;8.30;75.40;;;;;;5163524;27;20225;-39
2021/04/13 09:46:50;;;;;;;5.72;2.55;;;8.10;77.20;;;;;;5185047;27;20262;-37
2021/04/13 09:49:41;;;;;;;3.08;2.35;;;8.10;78.80;;;;;;5178124;27;20202;-37
2021/04/13 09:52:54;;;;;;;2.65;2.40;;;8.10;81.70;;;;;;5183371;27;20213;-40
2021/04/13 09:55:38;;;;;;;3.13;2.83;;;8.10;84.50;;;;;;5100729;28;20600;-39
2021/04/13 09:58:50;;;;;;;2.70;2.50;;;8.00;85.80;;;;;;5098166;28;20297;-39
2021/04/13 10:01:38;;;;;;;5.65;2.75;;;8.00;87.90;;;;;;5099574;28;20204;-37
2021/04/13 10:04:36;;;;;;;2.80;2.60;;;8.00;88.90;;;;;;5100144;28;20254;-36
2021/04/13 10:07:24;;;;;;;2.65;2.15;;;7.90;90.50;;;;;;5099595;28;20243;-37
2021/04/13 10:09:56;;;;;;;2.30;2.10;;;7.90;91.30;;;;;;5090779;28;20197;-38
2021/04/13 10:12:54;;;;;;;2.95;2.75;;;8.00;91.90;;;;;;5099562;28;20257;-39
2021/04/13 10:15:51;;;;;;;3.45;2.30;;;8.00;92.30;;;;;;5095668;28;20197;-38
2021/04/13 10:19:02;;;;;;;2.90;2.60;;;7.90;92.50;;;;;;5099299;28;20204;-38
2021/04/13 10:22:03;;;;;;;2.70;2.50;;;7.90;93.60;;;;;;5099928;28;20250;-39
2021/04/13 10:25:06;;;;;;;2.85;2.65;;;7.80;94.30;;;;;;5103306;28;20223;-38
2021/04/13 10:28:20;;;;;;;2.75;2.55;;;7.80;94.90;;;;;;5101651;28;20204;-38
2021/04/13 10:31:28;;;;;;;3.53;2.38;;;7.70;95.50;;;;;;5134329;27;20197;-35
2021/04/13 10:34:43;;;;;;;3.17;2.40;;;7.70;95.80;;;;;;5179462;27;20197;-42
2021/04/13 10:37:56;;;;;;;3.00;2.80;;;7.70;96.60;;;;;;5187588;27;20339;-40
2021/04/13 10:40:59;;;;;;;3.05;2.20;;;7.60;96.90;;;;;;5175688;27;20225;-36
2021/04/13 10:44:08;;;;;;;3.47;2.45;;;7.50;97.50;;;;;;5167385;27;20230;-34
2021/04/13 10:46:46;;;;;;;2.40;2.20;;;7.50;98.30;;;;;;5156005;27;20242;-39
2021/04/13 10:49:36;;;;;;;4.15;2.40;;;7.40;98.90;;;;;;5186633;27;20533;-39
2021/04/13 10:52:38;;;;;;;2.95;2.65;;;7.40;99.20;;;;;;5188206;27;20262;-38
2021/04/13 10:55:31;;;;;;;3.00;2.33;;;7.40;99.50;;;;;;5188471;27;20193;-37
2021/04/13 10:58:40;;;;;;;3.78;2.35;;;7.30;99.90;;;;;;5184476;27;20536;-35
2021/04/13 11:01:40;;;;;;;3.08;2.20;;;7.20;99.90;;;;;;5187092;27;20219;-33
2021/04/13 11:05:02;;;;;;;5.57;2.53;;;7.20;99.90;;;;;;5183059;27;20225;-37
2021/04/13 11:08:22;;;;;;;3.22;2.50;;;7.10;99.90;;;;;;5082502;28;20205;-39
2021/04/13 11:11:26;;;;;;;4.30;2.60;;;7.10;99.90;;;;;;5042530;28;20294;-39
2021/04/13 11:14:44;;;;;;;2.30;2.10;;;7.00;99.90;;;;;;5036693;28;20629;-38
2021/04/13 11:17:43;;;;;;;2.60;2.22;;;7.00;99.90;;;;;;5036676;28;20213;-38
2021/04/13 11:20:25;;;;;;;2.90;2.50;;;6.90;99.90;;;;;;5042230;28;20272;-34
2021/04/13 11:23:41;;;;;;;2.72;2.53;;;6.80;99.90;;;;;;5041835;28;20252;-37
2021/04/13 11:26:54;;;;;;;3.28;2.30;;;6.70;99.90;;;;;;5033002;28;20207;-38
2021/04/13 11:30:08;;;;;;;2.35;2.15;;;6.60;99.90;;;;;;5042590;28;20199;-37
2021/04/13 11:33:12;;;;;;;3.00;2.70;;;6.60;99.90;;;;;;5011536;28;20307;-38
2021/04/13 11:35:44;;;;;;;3.72;2.50;;;6.50;99.90;;;;;;5002750;28;20204;-37
2021/04/13 11:38:48;;;;;;;3.70;2.50;;;6.40;99.90;;;;;;5029146;28;20198;-36
2021/04/13 11:42:04;;;;;;;2.65;2.20;;;6.30;99.90;;;;;;5059235;28;20295;-40
2021/04/13 11:44:41;;;;;;;2.88;2.25;;;6.30;99.90;;;;;;5021771;28;20238;-37
2021/04/13 11:47:20;;;;;;;2.58;2.20;;;6.30;99.90;;;;;;5014977;28;20300;-37
2021/04/13 11:50:01;;;;;;;3.10;2.90;;;6.30;99.90;;;;;;5011255;28;20261;-36
2021/04/13 11:52:42;;;;;;;2.92;2.60;;;6.30;99.90;;;;;;5022269;28;20226;-38
2021/04/13 11:55:37;;;;;;;2.67;2.30;;;6.10;99.90;;;;;;5019036;28;20202;-38
2021/04/13 11:58:13;;;;;;;2.45;2.25;;;6.10;99.90;;;;;;5017433;28;20671;-38
2021/04/13 12:00:43;;;;;;;3.53;2.80;;;6.00;99.90;;;;;;5018161;28;20207;-38
2021/04/13 12:03:36;;;;;;;4.40;2.35;;;6.00;99.90;;;;;;5021008;28;20204;-38
2021/04/13 12:06:12;;;;;;;5.93;2.80;;;5.90;99.90;;;;;;5005860;28;20244;-37
2021/04/13 12:08:54;;;;;;;3.15;2.33;;;5.90;99.90;;;;;;5016526;28;20211;-36
2021/04/13 12:11:42;;;;;;;2.38;2.17;;;5.90;99.90;;;;;;5020272;28;20231;-36
2021/04/13 12:14:45;;;;;;;4.75;2.58;;;5.90;99.90;;;;;;5037925;28;20241;-38
2021/04/13 12:17:43;;;;;;;2.78;2.50;;;5.90;99.90;;;;;;5052241;28;21118;-38
2021/04/13 12:20:39;;;;;;;2.65;2.45;;;5.90;99.90;;;;;;5127920;27;20194;-34
2021/04/13 12:23:45;;;;;;;3.10;2.80;;;5.90;99.90;;;;;;5186675;27;20293;-39
2021/04/13 12:26:35;;;;;;;2.60;2.40;;;5.80;99.90;;;;;;5186432;27;20205;-39
2021/04/13 12:29:32;;;;;;;2.25;2.15;;;5.70;99.90;;;;;;5187549;27;20274;-38
2021/04/13 12:32:23;;;;;;;2.20;2.10;;;5.70;99.90;;;;;;5186740;27;20186;-36
2021/04/13 12:34:57;;;;;;;3.65;1.92;;;5.70;99.90;;;;;;5180770;27;20262;-37
2021/04/13 12:37:42;;;;;;;2.58;2.38;;;5.60;99.90;;;;;;5187126;27;20225;-36
2021/04/13 12:40:33;;;;;;;3.90;2.35;;;5.60;99.90;;;;;;5186628;27;20228;-38
2021/04/13 12:43:41;;;;;;;5.68;2.67;;;5.70;99.90;;;;;;5182877;27;20214;-35
2021/04/13 12:46:25;;;;;;;5.20;2.60;;;5.70;99.90;;;;;;5100718;28;20204;-38
2021/04/13 12:48:58;;;;;;;3.75;2.58;;;5.60;99.90;;;;;;5092508;28;20246;-37
2021/04/13 12:51:34;;;;;;;2.60;2.40;;;5.50;99.90;;;;;;5098986;28;20277;-39
2021/04/13 12:54:16;;;;;;;4.55;2.85;;;5.50;99.90;;;;;;5097334;28;20323;-34
2021/04/13 12:56:55;;;;;;;3.78;2.63;;;5.40;99.90;;;;;;5100294;28;20197;-36
2021/04/13 12:59:28;;;;;;;2.13;1.95;;;5.40;99.90;;;;;;5088932;28;20197;-36
2021/04/13 13:01:58;;;;;;;5.28;2.50;;;5.40;99.90;;;;;;5100758;28;20230;-37
2021/04/13 13:04:38;;;;;;;2.72;2.50;;;5.40;99.90;;;;;;5101447;28;20200;-38
2021/04/13 13:07:16;;;;;;;3.90;2.10;;;5.30;99.90;;;;;;5100411;28;20192;-39
2021/04/13 13:09:46;;;;;;;2.42;2.22;;;5.20;99.90;;;;;;5101367;28;20193;-39
2021/04/13 13:12:19;;;;;;;4.10;2.15;;;5.20;99.90;;;;;;5099741;28;20618;-39
2021/04/13 13:14:52;;;;;;;2.95;2.22;;;5.20;99.90;;;;;;5098453;28;20196;-37
2021/04/13 13:17:33;;;;;;;2.35;2.15;;;5.10;99.90;;;;;;5101349;28;20227;-38
2021/04/13 13:20:04;;;;;;;5.80;2.40;;;5.10;99.90;;;;;;5141270;27;20193;-36
2021/04/13 13:22:35;;;;;;;2.30;2.20;;;5.10;99.90;;;;;;5185191;27;20201;-37
2021/04/13 13:25:15;;;;;;;2.70;2.20;;;5.10;99.90;;;;;;5186182;27;20230;-37
2021/04/13 13:27:45;;;;;;;2.30;2.10;;;5.10;99.90;;;;;;5183826;27;20289;-36
2021/04/13 13:30:21;;;;;;;3.83;2.45;;;5.00;99.90;;;;;;5185722;27;20198;-36
2021/04/13 13:32:53;;;;;;;7.18;2.40;;;4.90;99.90;;;;;;5185280;27;20213;-37
2021/04/13 13:35:23;;;;;;;4.22;3.00;;;5.00;99.90;;;;;;5185196;27;20205;-39
2021/04/13 13:37:58;;;;;;;2.90;2.10;;;5.10;99.90;;;;;;5185766;27;20205;-35
2021/04/13 13:40:33;;;;;;;2.20;2.10;;;5.10;99.90;;;;;;5185149;27;20221;-38
2021/04/13 13:43:07;;;;;;;3.58;2.38;;;5.20;99.90;;;;;;5182788;27;20221;-39
2021/04/13 13:45:40;;;;;;;4.15;2.50;;;5.30;99.90;;;;;;5185534;27;20276;-36
2021/04/13 13:48:26;;;;;;;3.15;2.60;;;5.30;99.90;;;;;;5183399;27;20212;-38
2021/04/13 13:51:09;;;;;;;3.65;2.53;;;5.30;99.90;;;;;;5184952;27;20218;-37
2021/04/13 13:53:58;;;;;;;2.25;1.98;;;5.30;99.90;;;;;;5174041;27;20595;-36
2021/04/13 13:56:34;;;;;;;3.67;2.70;;;5.40;99.90;;;;;;5185200;27;20338;-38
2021/04/13 13:59:39;;;;;;;3.20;2.33;;;5.30;99.90;;;;;;5190270;27;20233;-37
2021/04/13 14:02:21;;;;;;;3.22;2.30;;;5.30;99.90;;;;;;5189174;27;20209;-36